Time;durP1;ratioP1;P1;durP2;ratioP2;P2;SDS_P1;SDS_P2;PMS_P1;PMS_P2;Temp;Humidity;BMP_temperature;BMP_pressure;BME280_temperature;BME280_humidity;BME280_pressure;Samples;Min_cycle;Max_cycle;Signal;HPM_P1;HPM_P2
2023/01/16 00:01:51;;;;;;;18.23;3.65;;;8.20;99.90;;;;;;5092623;28;20036;-62
2023/01/16 00:04:16;;;;;;;15.38;3.00;;;8.20;99.90;;;;;;5092847;28;20137;-62
2023/01/16 00:06:43;;;;;;;15.55;3.47;;;8.20;99.90;;;;;;5092338;28;20086;-62
2023/01/16 00:09:08;;;;;;;16.67;3.65;;;8.00;99.90;;;;;;5092411;28;20082;-62
2023/01/16 00:11:34;;;;;;;15.15;2.97;;;7.90;99.90;;;;;;5091709;28;20065;-62
2023/01/16 00:14:00;;;;;;;14.55;3.00;;;7.80;99.90;;;;;;5092411;28;20027;-62
2023/01/16 00:16:27;;;;;;;11.82;3.10;;;7.70;99.90;;;;;;5092400;28;20049;-62
2023/01/16 00:18:53;;;;;;;14.45;3.00;;;7.60;99.90;;;;;;5092332;28;20028;-62
2023/01/16 00:21:19;;;;;;;15.20;3.22;;;7.50;99.90;;;;;;5092668;28;20392;-62
2023/01/16 00:23:46;;;;;;;17.45;3.30;;;7.50;99.90;;;;;;5091946;28;20024;-62
2023/01/16 00:26:11;;;;;;;15.38;3.28;;;7.40;99.90;;;;;;5092362;28;20051;-62
2023/01/16 00:28:38;;;;;;;13.25;3.03;;;7.30;99.90;;;;;;5092088;28;20493;-62
2023/01/16 00:31:05;;;;;;;11.38;3.35;;;7.30;99.90;;;;;;5092158;28;20028;-62
2023/01/16 00:33:32;;;;;;;12.45;3.25;;;7.30;99.90;;;;;;5092065;28;20051;-62
2023/01/16 00:35:57;;;;;;;13.05;3.30;;;7.20;99.90;;;;;;5092078;28;20564;-62
2023/01/16 00:38:23;;;;;;;12.57;3.70;;;7.20;99.90;;;;;;5092471;28;20104;-62
2023/01/16 00:40:49;;;;;;;13.30;3.25;;;7.20;99.90;;;;;;5091703;28;20099;-62
2023/01/16 00:43:15;;;;;;;13.00;3.15;;;7.20;99.90;;;;;;5093911;28;20028;-62
2023/01/16 00:45:40;;;;;;;13.05;3.40;;;7.20;99.90;;;;;;5096121;28;20032;-62
2023/01/16 00:48:07;;;;;;;10.57;3.20;;;7.30;99.90;;;;;;5096123;28;20019;-62
2023/01/16 00:50:33;;;;;;;15.48;3.33;;;7.40;99.90;;;;;;5096387;28;20044;-62
2023/01/16 00:52:58;;;;;;;13.95;3.13;;;7.30;99.90;;;;;;5096124;28;20535;-62
2023/01/16 00:55:24;;;;;;;16.40;3.25;;;7.30;99.90;;;;;;5095551;28;20049;-62
2023/01/16 00:57:50;;;;;;;13.52;3.10;;;7.30;99.90;;;;;;5096039;28;20026;-62
2023/01/16 01:00:21;;;;;;;17.65;3.58;;;7.40;99.90;;;;;;5095872;28;20020;-62
2023/01/16 01:02:49;;;;;;;12.23;2.88;;;7.40;99.90;;;;;;5095761;28;20168;-62
2023/01/16 01:05:15;;;;;;;14.90;3.40;;;7.40;99.90;;;;;;5096223;28;20031;-61
2023/01/16 01:07:41;;;;;;;13.77;2.90;;;7.30;99.90;;;;;;5095186;28;20032;-61
2023/01/16 01:10:08;;;;;;;12.35;3.20;;;7.30;99.90;;;;;;5095357;28;20100;-62
2023/01/16 01:12:33;;;;;;;14.73;3.15;;;7.30;99.90;;;;;;5095689;28;20024;-62
2023/01/16 01:14:59;;;;;;;12.02;3.10;;;7.30;99.90;;;;;;5095717;28;20027;-62
2023/01/16 01:17:25;;;;;;;20.30;3.58;;;7.40;99.90;;;;;;5095676;28;20030;-62
2023/01/16 01:19:50;;;;;;;13.20;2.95;;;7.30;99.90;;;;;;5095993;28;20024;-62
2023/01/16 01:22:16;;;;;;;10.65;2.67;;;7.30;99.90;;;;;;5095263;28;20032;-62
2023/01/16 01:24:46;;;;;;;8.77;2.30;;;7.40;99.90;;;;;;5095383;28;20039;-62
2023/01/16 01:27:12;;;;;;;6.10;1.80;;;7.50;99.90;;;;;;5095395;28;20042;-60
2023/01/16 01:29:38;;;;;;;5.93;1.85;;;7.60;99.90;;;;;;5095468;28;20103;-63
2023/01/16 01:32:05;;;;;;;5.00;2.00;;;7.60;99.90;;;;;;5095561;28;20040;-62
2023/01/16 01:34:33;;;;;;;9.40;2.00;;;7.50;99.90;;;;;;5095179;28;20537;-62
2023/01/16 01:37:03;;;;;;;6.50;2.10;;;7.40;99.90;;;;;;5094866;28;20036;-60
2023/01/16 01:39:29;;;;;;;8.30;2.13;;;7.40;99.90;;;;;;5095075;28;20020;-60
2023/01/16 01:42:41;;;;;;;9.05;2.10;;;7.40;99.90;;;;;;5095515;28;20109;-62
2023/01/16 01:44:52;;;;;;;9.88;2.42;;;7.40;99.90;;;;;;5094931;28;20043;-61
2023/01/16 01:47:26;;;;;;;8.77;2.35;;;7.40;99.90;;;;;;5094841;28;20031;-62
2023/01/16 01:49:54;;;;;;;8.82;2.05;;;7.40;99.90;;;;;;5095116;28;20097;-62
2023/01/16 01:52:21;;;;;;;12.13;2.10;;;7.40;99.90;;;;;;5110517;28;20028;-62
2023/01/16 01:54:54;;;;;;;8.93;2.22;;;7.50;99.90;;;;;;5093780;28;20099;-62
2023/01/16 01:57:32;;;;;;;9.77;2.42;;;7.40;99.90;;;;;;5095203;28;20028;-62
2023/01/16 02:00:06;;;;;;;6.10;1.88;;;7.30;99.90;;;;;;5094878;28;20059;-62
2023/01/16 02:02:37;;;;;;;9.52;2.15;;;7.30;99.90;;;;;;5094632;28;20028;-62
2023/01/16 02:05:08;;;;;;;8.40;2.40;;;7.40;99.90;;;;;;5094980;28;20032;-62
2023/01/16 02:07:34;;;;;;;14.57;2.80;;;7.40;99.90;;;;;;5093972;28;20028;-62
2023/01/16 02:10:23;;;;;;;11.63;2.75;;;7.40;99.90;;;;;;5094379;28;20067;-62
2023/01/16 02:12:50;;;;;;;13.68;3.05;;;7.40;99.90;;;;;;5091379;28;20040;-62
2023/01/16 02:15:16;;;;;;;14.50;3.10;;;7.40;99.90;;;;;;5094467;28;20008;-62
2023/01/16 02:20:36;;;;;;;15.13;3.30;;;7.40;99.90;;;;;;5094419;28;20046;-62
2023/01/16 02:23:11;;;;;;;16.70;3.65;;;7.50;99.90;;;;;;5092927;28;20028;-62
2023/01/16 02:25:48;;;;;;;18.27;3.67;;;7.60;99.90;;;;;;5094319;28;20039;-62
2023/01/16 02:28:23;;;;;;;12.75;3.28;;;7.70;99.90;;;;;;5094124;28;20039;-62
2023/01/16 02:31:11;;;;;;;18.50;3.40;;;7.70;99.90;;;;;;5092842;28;20397;-62
2023/01/16 02:34:01;;;;;;;17.10;3.25;;;7.70;99.90;;;;;;5094092;28;20031;-62
2023/01/16 02:37:01;;;;;;;15.00;3.53;;;7.80;99.90;;;;;;5093868;28;20070;-62
2023/01/16 02:39:53;;;;;;;16.50;3.65;;;7.80;99.90;;;;;;5093879;28;20035;-62
2023/01/16 02:42:57;;;;;;;18.92;3.53;;;7.80;99.90;;;;;;5093871;28;20110;-61
2023/01/16 02:45:37;;;;;;;16.70;3.80;;;7.90;99.90;;;;;;5071442;28;20176;-61
2023/01/16 02:48:37;;;;;;;11.32;3.17;;;7.80;99.90;;;;;;5071422;28;20085;-62
2023/01/16 02:51:15;;;;;;;14.70;3.42;;;7.80;99.90;;;;;;4994599;28;20511;-62
2023/01/16 02:53:59;;;;;;;14.27;3.17;;;7.80;99.90;;;;;;5011689;28;20061;-62
2023/01/16 02:56:33;;;;;;;13.48;2.95;;;8.00;99.90;;;;;;5011769;28;20025;-62
2023/01/16 02:58:59;;;;;;;16.63;3.70;;;8.00;99.90;;;;;;5011451;28;20030;-62
2023/01/16 03:01:25;;;;;;;15.10;2.90;;;8.00;99.90;;;;;;5011445;28;20034;-61
2023/01/16 03:03:53;;;;;;;15.30;3.00;;;8.00;99.90;;;;;;5010977;28;20092;-62
2023/01/16 03:06:46;;;;;;;20.60;3.97;;;8.00;99.90;;;;;;5011201;28;20489;-62
2023/01/16 03:09:30;;;;;;;24.45;3.85;;;8.00;99.90;;;;;;5011055;28;20049;-62
2023/01/16 03:12:39;;;;;;;18.75;3.83;;;8.10;99.90;;;;;;5010818;28;20040;-61
2023/01/16 03:15:10;;;;;;;22.42;3.85;;;8.20;99.90;;;;;;5011265;28;20091;-62
2023/01/16 03:17:49;;;;;;;20.45;4.43;;;8.30;99.90;;;;;;5011251;28;20030;-62
2023/01/16 03:20:56;;;;;;;19.65;4.05;;;8.30;99.90;;;;;;5045773;28;20460;-62
2023/01/16 03:23:55;;;;;;;20.17;4.35;;;8.30;99.90;;;;;;5030819;28;20444;-62
2023/01/16 03:26:29;;;;;;;19.90;4.20;;;8.20;99.90;;;;;;5035150;28;20038;-62
2023/01/16 03:28:58;;;;;;;22.90;4.97;;;8.40;99.90;;;;;;5090824;28;20027;-62
2023/01/16 03:31:49;;;;;;;22.70;4.18;;;8.30;99.90;;;;;;5090753;28;20134;-61
2023/01/16 03:34:24;;;;;;;21.83;4.82;;;8.30;99.90;;;;;;5030335;28;20061;-62
2023/01/16 03:37:00;;;;;;;24.27;4.63;;;8.10;99.90;;;;;;5030982;28;20087;-62
2023/01/16 03:39:32;;;;;;;21.70;4.75;;;8.00;99.90;;;;;;5030355;28;20041;-62
2023/01/16 03:42:02;;;;;;;22.85;4.60;;;8.00;99.90;;;;;;5030532;28;20041;-62
2023/01/16 03:44:33;;;;;;;24.98;4.93;;;8.20;99.90;;;;;;5030906;28;20029;-62
2023/01/16 03:47:02;;;;;;;23.30;5.00;;;8.20;99.90;;;;;;5030643;28;20029;-62
2023/01/16 03:49:37;;;;;;;29.15;5.68;;;8.20;99.90;;;;;;5029816;28;20141;-62
2023/01/16 03:52:05;;;;;;;28.88;5.30;;;8.20;99.90;;;;;;5030144;28;20473;-62
2023/01/16 03:54:52;;;;;;;32.35;5.90;;;8.30;99.90;;;;;;5030755;28;20032;-62
2023/01/16 03:57:21;;;;;;;36.42;6.60;;;8.40;99.90;;;;;;5019697;28;20054;-62
2023/01/16 03:59:49;;;;;;;34.35;6.40;;;8.50;99.90;;;;;;5010719;28;20034;-62
2023/01/16 04:02:49;;;;;;;31.42;6.40;;;8.50;99.90;;;;;;5010163;28;20030;-62
2023/01/16 04:05:27;;;;;;;31.95;7.18;;;8.50;99.90;;;;;;5009156;28;20080;-62
2023/01/16 04:07:59;;;;;;;34.05;6.97;;;8.50;99.90;;;;;;5026546;28;20069;-62
2023/01/16 04:10:30;;;;;;;45.38;8.70;;;8.60;99.90;;;;;;5037447;28;20422;-62
2023/01/16 04:13:08;;;;;;;59.65;11.07;;;8.80;99.90;;;;;;5092600;28;20034;-63
2023/01/16 04:15:37;;;;;;;60.13;12.68;;;9.00;99.90;;;;;;5092290;28;20091;-62
2023/01/16 04:18:03;;;;;;;59.75;12.43;;;9.20;99.90;;;;;;5091859;28;20028;-63
2023/01/16 04:20:30;;;;;;;62.78;11.93;;;9.20;99.90;;;;;;5092359;28;20032;-62
2023/01/16 04:22:56;;;;;;;59.28;12.38;;;9.20;99.90;;;;;;5092365;28;20496;-62
2023/01/16 04:25:23;;;;;;;66.75;14.57;;;9.20;99.90;;;;;;5092379;28;20059;-62
2023/01/16 04:27:49;;;;;;;66.70;13.48;;;9.30;99.90;;;;;;5092337;28;20439;-62
2023/01/16 04:30:15;;;;;;;66.95;13.45;;;9.30;99.90;;;;;;5092134;28;20024;-62
2023/01/16 04:32:41;;;;;;;69.32;14.05;;;9.20;99.90;;;;;;5092046;28;20031;-62
2023/01/16 04:35:08;;;;;;;65.03;13.60;;;9.30;99.90;;;;;;5092487;28;20031;-62
2023/01/16 04:37:34;;;;;;;64.60;14.50;;;9.20;99.90;;;;;;5092144;28;20032;-62
2023/01/16 04:40:00;;;;;;;69.07;15.20;;;9.30;99.90;;;;;;5092075;28;20027;-62
2023/01/16 04:42:26;;;;;;;74.80;15.32;;;9.40;99.90;;;;;;5092029;28;20041;-62
2023/01/16 04:44:52;;;;;;;65.55;13.90;;;9.30;99.90;;;;;;5092030;28;20029;-62
2023/01/16 04:47:18;;;;;;;43.70;9.68;;;8.80;99.90;;;;;;5092054;28;20056;-62
2023/01/16 04:49:43;;;;;;;39.25;9.07;;;8.70;99.90;;;;;;5092223;28;20122;-62
2023/01/16 04:52:11;;;;;;;43.40;9.52;;;8.70;99.90;;;;;;5091884;28;20039;-62
2023/01/16 04:54:37;;;;;;;37.95;8.00;;;8.70;99.90;;;;;;5092059;28;20388;-62
2023/01/16 04:57:03;;;;;;;50.92;9.80;;;8.50;99.90;;;;;;5092029;28;20038;-62
2023/01/16 04:59:28;;;;;;;45.53;9.90;;;8.50;99.90;;;;;;5092387;28;20020;-63
2023/01/16 05:01:54;;;;;;;46.13;10.88;;;8.50;99.90;;;;;;5091519;28;20027;-62
2023/01/16 05:04:20;;;;;;;58.83;11.07;;;8.40;99.90;;;;;;5091965;28;20030;-62
2023/01/16 05:06:46;;;;;;;57.65;11.77;;;8.50;99.90;;;;;;5091717;28;20050;-62
2023/01/16 05:09:12;;;;;;;50.70;10.55;;;8.60;99.90;;;;;;5091815;28;20048;-62
2023/01/16 05:11:38;;;;;;;50.92;11.02;;;8.70;99.90;;;;;;5091745;28;20396;-62
2023/01/16 05:14:07;;;;;;;55.15;10.60;;;8.70;99.90;;;;;;5091816;28;20533;-62
2023/01/16 05:16:38;;;;;;;64.88;12.85;;;8.60;99.90;;;;;;5091999;28;20024;-62
2023/01/16 05:19:04;;;;;;;61.90;13.10;;;8.80;99.90;;;;;;5090674;28;20025;-63
2023/01/16 05:21:30;;;;;;;56.97;11.50;;;9.10;99.90;;;;;;5091701;28;20032;-62
2023/01/16 05:23:56;;;;;;;47.55;11.07;;;9.30;99.90;;;;;;5091820;28;20027;-63
2023/01/16 05:26:22;;;;;;;55.75;10.50;;;9.60;99.90;;;;;;5091749;28;20032;-63
2023/01/16 05:28:48;;;;;;;41.20;9.07;;;9.60;99.90;;;;;;5091718;28;20103;-62
2023/01/16 05:31:13;;;;;;;45.45;10.13;;;9.70;99.90;;;;;;5094663;28;20032;-63
2023/01/16 05:33:39;;;;;;;40.28;9.13;;;9.30;99.90;;;;;;5095349;28;20046;-63
2023/01/16 05:36:05;;;;;;;33.90;7.18;;;9.30;99.90;;;;;;5095301;28;20431;-62
2023/01/16 05:38:31;;;;;;;35.97;7.38;;;9.30;99.90;;;;;;5095232;28;20020;-62
2023/01/16 05:40:57;;;;;;;30.08;6.75;;;9.40;99.90;;;;;;5095122;28;20031;-62
2023/01/16 05:43:22;;;;;;;32.10;7.38;;;9.20;99.90;;;;;;5095177;28;20031;-62
2023/01/16 05:45:48;;;;;;;39.05;7.72;;;9.30;99.90;;;;;;5095186;28;20020;-62
2023/01/16 05:48:14;;;;;;;34.17;7.28;;;9.30;99.90;;;;;;5095022;28;20024;-62
2023/01/16 05:50:40;;;;;;;37.55;7.50;;;9.50;99.90;;;;;;5094891;28;20476;-62
2023/01/16 05:53:05;;;;;;;37.08;9.13;;;9.40;99.90;;;;;;5095416;28;20016;-62
2023/01/16 05:55:32;;;;;;;43.30;9.18;;;9.40;99.90;;;;;;5095077;28;20401;-62
2023/01/16 05:57:57;;;;;;;40.17;8.75;;;9.40;99.90;;;;;;5094510;28;20517;-62
2023/01/16 06:00:23;;;;;;;34.65;8.48;;;9.40;99.90;;;;;;5094773;28;20024;-62
2023/01/16 06:02:49;;;;;;;37.53;7.63;;;9.40;99.90;;;;;;5095320;28;20538;-62
2023/01/16 06:05:15;;;;;;;34.50;7.47;;;9.30;99.90;;;;;;5094677;28;20073;-62
2023/01/16 06:07:43;;;;;;;30.50;6.90;;;9.20;99.90;;;;;;5094503;28;20044;-62
2023/01/16 06:10:10;;;;;;;26.58;6.75;;;9.10;99.90;;;;;;5094197;28;20044;-62
2023/01/16 06:12:36;;;;;;;32.03;7.35;;;9.10;99.90;;;;;;5094236;28;20028;-62
2023/01/16 06:15:02;;;;;;;28.55;6.70;;;9.20;99.90;;;;;;5094888;28;20477;-62
2023/01/16 06:17:27;;;;;;;31.52;7.28;;;9.10;99.90;;;;;;5094674;28;20107;-62
2023/01/16 06:19:53;;;;;;;33.90;7.57;;;9.10;99.90;;;;;;5094427;28;20032;-63
2023/01/16 06:22:20;;;;;;;26.83;7.03;;;9.10;99.90;;;;;;5094530;28;20081;-62
2023/01/16 06:24:45;;;;;;;33.45;6.90;;;9.00;99.90;;;;;;5094401;28;20030;-63
2023/01/16 06:27:11;;;;;;;39.20;7.60;;;9.20;99.90;;;;;;5094385;28;20447;-62
2023/01/16 06:29:38;;;;;;;31.77;7.35;;;9.00;99.90;;;;;;5094016;28;20024;-62
2023/01/16 06:32:04;;;;;;;34.67;7.47;;;9.10;99.90;;;;;;5094025;28;20067;-62
2023/01/16 06:34:30;;;;;;;34.03;7.07;;;9.30;99.90;;;;;;5094219;28;20063;-63
2023/01/16 06:36:55;;;;;;;32.95;7.28;;;9.50;99.90;;;;;;5094107;28;20032;-63
2023/01/16 06:39:21;;;;;;;33.45;7.82;;;9.40;99.90;;;;;;5094094;28;20024;-62
2023/01/16 06:41:47;;;;;;;31.15;6.97;;;9.40;99.90;;;;;;5093287;28;20391;-62
2023/01/16 06:44:12;;;;;;;35.80;9.02;;;9.40;99.90;;;;;;5094220;28;20099;-62
2023/01/16 06:46:38;;;;;;;33.10;8.68;;;9.40;99.90;;;;;;5093485;28;20024;-62
2023/01/16 06:49:04;;;;;;;39.80;8.57;;;9.50;99.90;;;;;;5093991;28;20025;-62
2023/01/16 06:51:29;;;;;;;43.47;9.20;;;9.50;99.90;;;;;;5093706;28;20036;-61
2023/01/16 06:53:55;;;;;;;41.20;9.00;;;9.50;99.90;;;;;;5093945;28;20141;-61
2023/01/16 06:56:21;;;;;;;40.85;9.15;;;9.60;99.90;;;;;;5093584;28;20106;-61
2023/01/16 06:58:46;;;;;;;42.50;9.45;;;9.70;99.90;;;;;;5093719;28;20028;-62
2023/01/16 07:01:12;;;;;;;37.28;8.57;;;9.70;99.90;;;;;;5093906;28;20026;-62
2023/01/16 07:03:38;;;;;;;36.80;9.02;;;9.80;99.90;;;;;;5093827;28;20144;-62
2023/01/16 07:06:04;;;;;;;35.08;8.48;;;9.60;99.90;;;;;;5093481;28;20031;-62
2023/01/16 07:08:29;;;;;;;37.80;9.10;;;9.60;99.90;;;;;;5093147;28;20484;-61
2023/01/16 07:10:59;;;;;;;32.33;7.43;;;9.60;99.90;;;;;;5092867;28;20028;-62
2023/01/16 07:13:28;;;;;;;40.05;8.25;;;9.50;99.90;;;;;;5092853;28;20086;-62
2023/01/16 07:24:15;;;;;;;35.20;8.13;;;9.20;99.90;;;;;;5093015;28;20031;-62
2023/01/16 07:26:44;;;;;;;29.88;6.75;;;9.20;99.90;;;;;;5092748;28;20145;-62
2023/01/16 07:29:10;;;;;;;36.28;7.50;;;9.20;99.90;;;;;;5093143;28;20024;-63
2023/01/16 07:31:36;;;;;;;28.73;6.28;;;9.20;99.90;;;;;;5093340;28;20403;-62
2023/01/16 07:34:02;;;;;;;24.73;5.60;;;9.10;99.90;;;;;;5091813;28;20527;-62
2023/01/16 07:36:27;;;;;;;27.15;5.65;;;9.20;99.90;;;;;;5092980;28;20051;-62
2023/01/16 07:38:53;;;;;;;24.88;5.18;;;9.20;99.90;;;;;;5093301;28;20107;-62
2023/01/16 07:41:19;;;;;;;20.13;4.88;;;9.30;99.90;;;;;;5092379;28;20066;-62
2023/01/16 07:43:44;;;;;;;23.20;5.07;;;9.30;99.90;;;;;;5092786;28;20027;-62
2023/01/16 07:46:10;;;;;;;24.02;4.60;;;9.40;99.90;;;;;;5092913;28;20111;-62
2023/01/16 07:48:36;;;;;;;22.63;4.72;;;9.50;99.90;;;;;;5092715;28;20028;-62
2023/01/16 07:51:02;;;;;;;21.00;5.43;;;9.50;99.90;;;;;;5093220;28;20082;-62
2023/01/16 07:53:29;;;;;;;27.08;5.53;;;9.60;99.90;;;;;;5092067;28;20031;-63
2023/01/16 07:55:57;;;;;;;25.17;5.70;;;9.50;99.90;;;;;;5092298;28;20504;-61
2023/01/16 07:58:23;;;;;;;28.38;6.00;;;9.60;99.90;;;;;;5091400;28;20032;-63
2023/01/16 08:00:52;;;;;;;29.05;6.10;;;9.70;99.90;;;;;;5093128;28;20103;-62
2023/01/16 08:03:18;;;;;;;29.40;5.80;;;9.70;99.90;;;;;;5092561;28;20020;-62
2023/01/16 08:05:44;;;;;;;31.65;6.88;;;9.70;99.90;;;;;;5092505;28;20016;-62
2023/01/16 08:08:11;;;;;;;29.38;6.45;;;9.70;99.90;;;;;;5091933;28;20047;-61
2023/01/16 08:10:37;;;;;;;26.30;6.10;;;9.50;99.90;;;;;;5092496;28;20056;-62
2023/01/16 08:13:04;;;;;;;26.92;6.20;;;9.40;99.90;;;;;;5092364;28;20485;-61
2023/01/16 08:15:30;;;;;;;25.58;5.78;;;9.20;99.90;;;;;;5092353;28;20038;-62
2023/01/16 08:17:56;;;;;;;24.80;5.55;;;9.00;99.90;;;;;;5092622;28;20534;-62
2023/01/16 08:20:22;;;;;;;22.50;5.32;;;9.00;99.90;;;;;;5092254;28;20028;-62
2023/01/16 08:22:50;;;;;;;18.73;4.38;;;9.00;99.90;;;;;;5091908;28;20016;-61
2023/01/16 08:25:17;;;;;;;19.77;4.70;;;8.90;99.90;;;;;;5092181;28;20020;-62
2023/01/16 08:27:43;;;;;;;15.75;3.75;;;8.90;99.90;;;;;;5092260;28;20115;-62
2023/01/16 08:30:09;;;;;;;14.32;3.90;;;8.90;99.90;;;;;;5092435;28;20095;-62
2023/01/16 08:32:35;;;;;;;17.02;3.70;;;8.90;99.90;;;;;;5092123;28;20032;-62
2023/01/16 08:35:03;;;;;;;15.25;3.60;;;8.90;99.90;;;;;;5092209;28;20066;-63
2023/01/16 08:37:30;;;;;;;19.92;4.00;;;9.10;99.90;;;;;;5091724;28;20538;-63
2023/01/16 08:39:56;;;;;;;23.20;4.32;;;9.10;99.90;;;;;;5091968;28;20020;-62
2023/01/16 08:53:26;;;;;;;26.30;6.35;;;9.30;99.90;;;;;;5071867;28;20087;-63
2023/01/16 08:55:51;;;;;;;28.73;6.18;;;9.30;99.90;;;;;;5071702;28;20492;-62
2023/01/16 08:58:20;;;;;;;25.23;5.93;;;9.40;99.90;;;;;;5071723;28;20024;-62
2023/01/16 09:00:46;;;;;;;28.35;5.90;;;9.50;99.90;;;;;;5071661;28;20400;-62
2023/01/16 09:03:12;;;;;;;21.40;5.57;;;9.60;99.90;;;;;;5072015;28;20031;-62
2023/01/16 09:05:37;;;;;;;29.50;6.22;;;9.70;99.90;;;;;;5075414;28;20032;-62
2023/01/16 09:08:03;;;;;;;26.55;6.70;;;9.70;99.90;;;;;;5093373;28;20074;-62
2023/01/16 09:10:30;;;;;;;28.90;5.85;;;9.70;99.90;;;;;;5095350;28;20044;-63
2023/01/16 09:15:41;;;;;;;28.40;6.43;;;9.70;99.90;;;;;;5096271;28;20031;-62
2023/01/16 09:18:07;;;;;;;31.75;6.93;;;9.70;99.90;;;;;;5095405;28;20119;-63
2023/01/16 09:20:32;;;;;;;26.75;6.13;;;9.70;99.90;;;;;;5095648;28;20074;-62
2023/01/16 09:23:00;;;;;;;22.95;5.55;;;9.80;99.90;;;;;;5095100;28;20024;-62
2023/01/16 09:25:27;;;;;;;19.88;4.88;;;10.00;99.90;;;;;;5095386;28;20047;-63
2023/01/16 09:27:52;;;;;;;21.50;5.05;;;10.00;99.90;;;;;;5095870;28;20070;-62
2023/01/16 09:30:18;;;;;;;19.50;5.28;;;10.00;99.90;;;;;;5094871;28;20020;-62
2023/01/16 09:32:45;;;;;;;23.75;5.15;;;10.00;99.90;;;;;;5095648;28;20404;-62
2023/01/16 09:35:11;;;;;;;24.92;5.25;;;10.00;99.90;;;;;;5094906;28;20465;-62
2023/01/16 09:37:37;;;;;;;23.20;5.00;;;10.00;99.90;;;;;;5095308;28;20024;-62
2023/01/16 09:40:03;;;;;;;30.10;6.05;;;10.10;99.90;;;;;;5095249;28;20393;-62
2023/01/16 09:45:56;;;;;;;29.23;7.55;;;10.10;99.90;;;;;;5095033;28;20420;-62
2023/01/16 09:48:36;;;;;;;27.05;7.05;;;10.10;99.90;;;;;;5095114;28;20085;-62
2023/01/16 09:51:12;;;;;;;29.10;7.47;;;10.10;99.90;;;;;;5094873;28;20020;-62
2023/01/16 09:59:29;;;;;;;33.10;7.50;;;10.30;99.90;;;;;;5095080;28;20035;-62
2023/01/16 10:02:09;;;;;;;33.80;8.88;;;10.30;99.90;;;;;;5094687;28;20024;-62
2023/01/16 10:04:36;;;;;;;34.25;6.78;;;10.30;99.90;;;;;;5094242;28;20487;-62
2023/01/16 10:07:54;;;;;;;26.35;6.05;;;10.40;99.90;;;;;;5094924;28;20099;-62
2023/01/16 10:10:40;;;;;;;32.88;7.22;;;10.50;99.90;;;;;;5072438;28;20071;-62
2023/01/16 10:13:29;;;;;;;30.80;6.18;;;10.50;99.90;;;;;;5072228;28;20036;-62
2023/01/16 10:16:00;;;;;;;27.85;6.65;;;10.70;99.90;;;;;;5070976;28;20024;-62
2023/01/16 10:18:50;;;;;;;25.90;6.43;;;10.70;99.90;;;;;;5071983;28;20024;-63
2023/01/16 10:21:38;;;;;;;28.00;6.35;;;10.70;99.90;;;;;;5071882;28;20411;-63
2023/01/16 10:24:31;;;;;;;28.42;6.47;;;10.80;99.90;;;;;;5071979;28;20040;-62
2023/01/16 10:27:03;;;;;;;24.33;6.32;;;10.80;99.90;;;;;;5071815;28;20108;-62
2023/01/16 10:29:30;;;;;;;21.80;4.90;;;10.80;99.90;;;;;;5071955;28;20481;-62
2023/01/16 10:32:05;;;;;;;29.00;6.35;;;10.90;99.90;;;;;;5071615;28;20036;-62
2023/01/16 10:34:40;;;;;;;23.75;5.15;;;10.90;99.90;;;;;;5054962;28;20082;-62
2023/01/16 10:37:06;;;;;;;24.55;5.47;;;11.00;99.90;;;;;;5054948;28;20025;-62
2023/01/16 10:39:35;;;;;;;22.40;5.65;;;10.90;99.90;;;;;;5071614;28;20068;-63
2023/01/16 10:50:29;;;;;;;30.10;5.95;;;11.10;99.90;;;;;;5093903;28;20119;-62
2023/01/16 10:52:56;;;;;;;21.67;5.47;;;11.10;99.90;;;;;;5094271;28;20044;-63
2023/01/16 10:55:22;;;;;;;18.17;4.55;;;10.80;99.90;;;;;;5093739;28;20055;-62
2023/01/16 10:57:52;;;;;;;14.90;3.28;;;10.10;99.90;;;;;;5093800;28;20056;-62
2023/01/16 11:00:29;;;;;;;12.30;2.95;;;9.70;99.90;;;;;;5093732;28;20024;-61
2023/01/16 11:03:18;;;;;;;10.05;2.85;;;9.30;99.90;;;;;;5093544;28;20089;-62
2023/01/16 11:05:44;;;;;;;9.30;2.85;;;9.20;99.90;;;;;;5093484;28;20396;-61
2023/01/16 11:08:12;;;;;;;11.15;3.00;;;9.10;99.90;;;;;;5093845;28;20400;-62
2023/01/16 11:10:39;;;;;;;13.10;2.72;;;9.10;99.90;;;;;;5093129;28;20060;-62
2023/01/16 11:19:16;;;;;;;12.57;3.22;;;9.30;99.90;;;;;;5093228;28;20463;-62
2023/01/16 11:21:44;;;;;;;13.48;3.40;;;9.40;99.90;;;;;;5093200;28;20598;-62
2023/01/16 11:24:28;;;;;;;11.88;3.40;;;9.40;99.90;;;;;;5093269;28;20034;-62
2023/01/16 11:26:57;;;;;;;12.43;3.47;;;9.30;99.90;;;;;;5092567;28;20105;-62
2023/01/16 11:29:28;;;;;;;11.68;3.55;;;9.40;99.90;;;;;;5093030;28;20051;-62
2023/01/16 11:31:56;;;;;;;14.90;3.55;;;9.50;99.90;;;;;;5092652;28;20035;-62
2023/01/16 11:34:27;;;;;;;14.85;4.40;;;9.60;99.90;;;;;;5093415;28;20077;-62
2023/01/16 11:36:54;;;;;;;15.35;3.67;;;9.70;99.90;;;;;;5093016;28;20097;-63
2023/01/16 11:39:24;;;;;;;16.92;4.00;;;9.70;99.90;;;;;;5093113;28;20075;-62
2023/01/16 11:41:56;;;;;;;16.75;3.90;;;9.80;99.90;;;;;;5093000;28;20441;-62
2023/01/16 11:47:28;;;;;;;17.60;4.05;;;9.80;99.90;;;;;;5069800;28;20036;-62
2023/01/16 11:49:54;;;;;;;20.05;4.60;;;9.60;99.90;;;;;;5070333;28;20040;-62
2023/01/16 11:52:27;;;;;;;18.05;3.67;;;9.50;99.90;;;;;;5070180;28;20800;-62
2023/01/16 11:54:57;;;;;;;17.77;4.03;;;9.40;99.90;;;;;;5070131;28;20032;-62
2023/01/16 11:57:41;;;;;;;19.05;3.83;;;9.40;99.90;;;;;;5070653;28;20043;-62
2023/01/16 12:00:08;;;;;;;15.55;4.18;;;9.50;99.90;;;;;;5070323;28;20029;-62
2023/01/16 12:03:00;;;;;;;16.30;4.10;;;9.60;99.90;;;;;;5070014;28;20103;-62
2023/01/16 12:05:53;;;;;;;14.20;3.95;;;9.70;99.90;;;;;;5049973;28;20045;-62
2023/01/16 12:08:41;;;;;;;14.40;3.88;;;9.60;99.90;;;;;;5049885;28;20470;-62
2023/01/16 12:11:08;;;;;;;20.98;4.28;;;9.50;99.90;;;;;;5049915;28;20103;-62
2023/01/16 12:14:17;;;;;;;17.40;3.80;;;9.40;99.90;;;;;;5050419;28;20048;-62
2023/01/16 12:17:08;;;;;;;17.77;4.95;;;9.50;99.90;;;;;;4990541;28;20097;-63
2023/01/16 12:19:46;;;;;;;21.42;5.15;;;9.70;99.90;;;;;;4932821;29;20060;-62
2023/01/16 12:22:23;;;;;;;19.70;4.47;;;9.80;99.90;;;;;;4887880;29;20107;-62
2023/01/16 12:25:19;;;;;;;18.33;3.60;;;9.80;99.90;;;;;;4876384;29;20116;-62
2023/01/16 12:28:03;;;;;;;18.23;3.97;;;9.70;99.90;;;;;;4876315;29;20044;-62
2023/01/16 12:30:29;;;;;;;;;;;9.70;99.90;;;;;;4876233;29;20041;-61
2023/01/16 12:33:26;;;;;;;20.17;4.05;;;9.80;99.90;;;;;;4875533;29;19912;-61
2023/01/16 12:35:52;;;;;;;19.50;4.60;;;9.70;99.90;;;;;;4876197;29;20120;-62
2023/01/16 12:38:23;;;;;;;20.13;6.93;;;9.50;99.90;;;;;;4876422;29;20120;-62
2023/01/16 12:43:17;;;;;;;15.15;4.60;;;9.30;99.90;;;;;;4879930;29;20059;-62
2023/01/16 12:44:10;;;;;;;20.25;9.35;;;9.40;99.90;;;;;;4935643;29;20676;-62
2023/01/16 12:47:09;;;;;;;13.85;5.10;;;9.50;99.90;;;;;;4944882;29;20106;-61
2023/01/16 12:49:35;;;;;;;15.00;4.40;;;9.40;99.90;;;;;;4955323;29;20043;-62
2023/01/16 12:52:13;;;;;;;11.25;4.15;;;9.20;99.90;;;;;;4954781;28;20047;-62
2023/01/16 12:54:51;;;;;;;13.57;4.65;;;9.20;99.90;;;;;;5008343;28;20085;-62
2023/01/16 12:57:19;;;;;;;17.25;7.18;;;9.20;99.90;;;;;;5063061;28;20093;-61
2023/01/16 12:59:58;;;;;;;19.65;7.47;;;9.30;99.90;;;;;;5074850;28;20608;-61
2023/01/16 13:02:39;;;;;;;17.30;4.60;;;9.30;99.90;;;;;;5076152;28;20040;-62
2023/01/16 13:05:19;;;;;;;15.65;3.70;;;9.30;99.90;;;;;;5075581;28;20141;-61
2023/01/16 13:08:10;;;;;;;19.27;4.60;;;9.40;99.90;;;;;;5090597;28;20058;-62
2023/01/16 13:13:28;;;;;;;18.45;5.20;;;9.70;99.90;;;;;;5072714;28;20422;-60
2023/01/16 13:16:00;;;;;;;25.00;6.13;;;9.80;99.90;;;;;;5071929;28;20037;-61
2023/01/16 13:18:43;;;;;;;20.63;5.28;;;9.90;99.90;;;;;;5071735;28;20056;-60
2023/01/16 13:21:15;;;;;;;18.58;4.82;;;9.90;99.90;;;;;;5071162;28;20398;-61
2023/01/16 13:23:47;;;;;;;21.42;5.30;;;9.90;99.90;;;;;;5072942;28;20033;-61
2023/01/16 13:26:16;;;;;;;24.37;5.00;;;9.90;99.90;;;;;;5073364;28;20039;-61
2023/01/16 13:29:05;;;;;;;23.70;5.65;;;10.00;99.90;;;;;;5072268;28;20480;-61
2023/01/16 13:31:31;;;;;;;25.90;5.93;;;10.00;99.90;;;;;;5072514;28;20186;-61
2023/01/16 13:34:34;;;;;;;24.63;5.80;;;9.90;99.90;;;;;;5073114;28;20517;-60
2023/01/16 13:37:31;;;;;;;22.08;5.40;;;9.90;99.90;;;;;;4993396;28;20038;-61
2023/01/16 13:40:33;;;;;;;19.70;5.70;;;9.80;99.90;;;;;;4993248;28;20049;-61
2023/01/16 13:46:08;;;;;;;22.73;5.43;;;9.60;99.90;;;;;;4988524;28;20045;-60
2023/01/16 13:48:36;;;;;;;18.50;4.70;;;9.70;99.90;;;;;;4991066;28;20110;-61
2023/01/16 13:51:18;;;;;;;23.05;4.90;;;9.60;99.90;;;;;;4992452;28;20193;-60
2023/01/16 13:53:51;;;;;;;20.92;4.60;;;9.60;99.90;;;;;;4993115;28;20038;-61
2023/01/16 13:56:22;;;;;;;22.70;4.83;;;9.70;99.90;;;;;;4993013;28;20038;-61
2023/01/16 13:59:28;;;;;;;19.83;4.70;;;9.70;99.90;;;;;;4992860;28;20049;-62
2023/01/16 14:01:56;;;;;;;17.05;4.93;;;9.80;99.90;;;;;;4987324;28;20034;-60
2023/01/16 14:04:23;;;;;;;18.85;4.28;;;9.90;99.90;;;;;;4992961;28;20035;-61
2023/01/16 14:10:16;;;;;;;21.05;4.40;;;9.80;99.90;;;;;;4952716;29;20118;-61